Time;durP1;ratioP1;P1;durP2;ratioP2;P2;SDS_P1;SDS_P2;PMS_P1;PMS_P2;Temp;Humidity;BMP_temperature;BMP_pressure;BME280_temperature;BME280_humidity;BME280_pressure;Samples;Min_cycle;Max_cycle;Signal;HPM_P1;HPM_P2
2024/03/05 00:00:27;;;;;;;;;1.33;1.33;;;;;13.92;100.00;100526.34;2095509;28;46459;-53
2024/03/05 00:01:28;;;;;;;;;1.00;1.00;;;;;13.88;100.00;100527.41;2092601;28;46417;-52
2024/03/05 00:02:28;;;;;;;;;1.00;1.00;;;;;13.84;100.00;100534.63;2095841;28;46465;-54
2024/03/05 00:03:29;;;;;;;;;1.00;1.00;;;;;13.86;100.00;100534.59;2093645;28;46228;-52
2024/03/05 00:04:30;;;;;;;;;1.00;1.00;;;;;13.85;100.00;100530.19;2095525;28;46187;-52
2024/03/05 00:05:30;;;;;;;;;1.00;1.00;;;;;13.82;100.00;100527.63;2093214;28;46873;-54
2024/03/05 00:06:32;;;;;;;;;1.67;1.67;;;;;13.81;100.00;100531.22;2095840;28;46563;-54
2024/03/05 00:07:35;;;;;;;;;2.75;2.75;;;;;13.79;100.00;100528.63;2093876;28;46786;-53
2024/03/05 00:08:36;;;;;;;;;1.50;0.50;;;;;13.78;100.00;100526.88;2096085;28;46615;-53
2024/03/05 00:09:36;;;;;;;;;2.00;2.00;;;;;13.87;100.00;100536.34;2093831;28;46995;-51
2024/03/05 00:10:36;;;;;;;;;2.33;2.33;;;;;13.91;100.00;100526.41;2096150;28;46388;-54
2024/03/05 00:11:37;;;;;;;;;2.00;1.67;;;;;13.94;100.00;100526.28;2093636;28;47657;-53
2024/03/05 00:12:37;;;;;;;;;2.33;2.33;;;;;13.94;100.00;100531.63;2095755;28;46209;-53
2024/03/05 00:13:37;;;;;;;;;2.67;2.67;;;;;13.96;100.00;100530.63;2092985;28;46699;-51
2024/03/05 00:14:38;;;;;;;;;2.67;2.67;;;;;13.95;100.00;100533.34;2094341;28;46599;-52
2024/03/05 00:15:41;;;;;;;;;4.00;2.00;;;;;13.96;100.00;100527.97;2093846;28;46578;-52
2024/03/05 00:16:42;;;;;;;;;4.00;3.00;;;;;13.92;100.00;100526.34;2095867;28;45463;-51
2024/03/05 00:17:43;;;;;;;;;4.00;2.00;;;;;13.91;100.00;100521.06;2093438;28;46432;-54
2024/03/05 00:18:45;;;;;;;;;3.50;2.00;;;;;13.90;100.00;100525.53;2095661;28;46340;-51
2024/03/05 00:19:46;;;;;;;;;1.25;1.25;;;;;13.90;100.00;100519.34;2094264;28;47057;-53
2024/03/05 00:20:46;;;;;;;;;1.00;1.00;;;;;13.91;100.00;100526.41;2094509;28;46765;-52
2024/03/05 00:21:47;;;;;;;;;2.67;2.00;;;;;13.90;100.00;100524.66;2094717;28;47143;-53
2024/03/05 00:22:48;;;;;;;;;3.00;2.00;;;;;13.89;100.00;100521.13;2095030;28;46849;-52
2024/03/05 00:23:48;;;;;;;;;2.00;2.00;;;;;13.89;100.00;100525.59;2094669;28;46350;-53
2024/03/05 00:24:48;;;;;;;;;2.00;2.00;;;;;13.88;100.00;100523.88;2094928;28;46382;-54
2024/03/05 00:25:49;;;;;;;;;3.00;1.33;;;;;13.51;100.00;100522.56;2094302;28;46870;-53
2024/03/05 00:26:49;;;;;;;;;2.00;2.00;;;;;13.45;100.00;100518.31;2094266;28;46681;-54
2024/03/05 00:27:49;;;;;;;;;2.33;2.33;;;;;13.44;100.00;100523.72;2094820;28;46304;-53
2024/03/05 00:28:50;;;;;;;;;1.67;1.67;;;;;13.41;100.00;100522.03;2094595;28;46568;-52
2024/03/05 00:29:50;;;;;;;;;2.33;1.00;;;;;13.40;100.00;100516.75;2095365;28;46615;-53
2024/03/05 00:30:51;;;;;;;;;1.00;1.00;;;;;13.48;100.00;100526.22;2093496;28;46863;-52
2024/03/05 00:31:51;;;;;;;;;1.00;1.00;;;;;13.42;100.00;100528.25;2094766;28;45252;-55
2024/03/05 00:32:52;;;;;;;;;1.67;1.67;;;;;13.73;100.00;100522.66;2100190;28;46298;-53
2024/03/05 00:33:52;;;;;;;;;2.00;2.00;;;;;13.51;100.00;100522.56;2101750;28;46596;-53
2024/03/05 00:34:52;;;;;;;;;2.33;2.33;;;;;13.45;100.00;100526.31;2101348;28;46434;-54
2024/03/05 00:35:53;;;;;;;;;2.00;2.00;;;;;13.41;100.00;100526.50;2084380;28;46447;-52
2024/03/05 00:36:53;;;;;;;;;1.00;1.00;;;;;13.68;100.00;100517.47;2082338;28;46630;-54
2024/03/05 00:37:54;;;;;;;;;2.00;2.00;;;;;13.58;100.00;100526.75;2100906;28;46806;-52
2024/03/05 00:38:55;;;;;;;;;1.25;1.25;;;;;13.42;100.00;100523.78;2100999;28;46301;-51
2024/03/05 00:39:55;;;;;;;;;3.00;2.33;;;;;13.79;100.00;100520.63;2102382;28;46693;-54
2024/03/05 00:40:55;;;;;;;;;1.67;0.33;;;;;13.51;100.00;100525.25;2100670;28;46655;-53
2024/03/05 00:41:56;;;;;;;;;1.67;1.67;;;;;13.49;100.00;100525.31;2103281;28;46221;-53
2024/03/05 00:42:56;;;;;;;;;3.00;2.00;;;;;13.50;100.00;100527.03;2100718;28;45539;-53
2024/03/05 00:43:56;;;;;;;;;1.67;1.67;;;;;13.49;100.00;100521.78;2102465;28;46584;-54
2024/03/05 00:44:58;;;;;;;;;1.00;1.00;;;;;13.51;100.00;100526.13;2100629;28;46223;-54
2024/03/05 00:46:00;;;;;;;;;1.00;1.00;;;;;13.47;100.00;100520.97;2102328;28;46350;-56
2024/03/05 00:47:00;;;;;;;;;1.75;1.75;;;;;13.54;100.00;100526.00;2101149;28;46785;-55
2024/03/05 00:48:01;;;;;;;;;1.00;1.00;;;;;13.48;100.00;100523.56;2102606;28;46436;-55
2024/03/05 00:49:01;;;;;;;;;1.00;1.00;;;;;13.46;100.00;100517.41;2097931;28;46870;-55
2024/03/05 00:50:05;;;;;;;;;1.00;1.00;;;;;13.45;100.00;100522.78;2099632;28;46275;-55
2024/03/05 00:51:06;;;;;;;;;2.00;1.00;;;;;13.45;100.00;100520.13;2099265;28;46219;-54
2024/03/05 00:52:07;;;;;;;;;1.50;1.50;;;;;13.43;100.00;100532.63;2103505;28;46503;-55
2024/03/05 00:53:08;;;;;;;;;1.00;1.00;;;;;13.43;100.00;100524.66;2091037;28;46351;-53
2024/03/05 00:54:09;;;;;;;;;2.00;2.00;;;;;13.46;100.00;100525.38;2094060;28;46433;-53
2024/03/05 00:55:10;;;;;;;;;1.00;1.00;;;;;13.46;100.00;100533.38;2100901;28;47428;-51
2024/03/05 00:56:10;;;;;;;;;4.00;3.00;;;;;13.45;100.00;100536.13;2101963;28;46327;-54
2024/03/05 00:57:11;;;;;;;;;1.00;1.00;;;;;13.74;100.00;100525.25;2100873;28;46300;-53
2024/03/05 00:58:12;;;;;;;;;3.00;1.00;;;;;13.80;100.00;100526.81;2102521;28;46735;-52
2024/03/05 00:59:13;;;;;;;;;2.00;2.00;;;;;13.80;100.00;100518.81;2100539;28;46715;-53
2024/03/05 01:00:14;;;;;;;;;2.00;1.00;;;;;13.80;100.00;100522.34;2095069;28;46587;-52
2024/03/05 01:01:15;;;;;;;;;1.75;1.75;;;;;13.79;100.00;100523.28;2091380;28;46721;-53
2024/03/05 01:02:16;;;;;;;;;2.00;1.50;;;;;13.79;100.00;100517.94;2102570;28;46915;-52
2024/03/05 01:03:16;;;;;;;;;1.00;1.00;;;;;13.81;100.00;100520.53;2100284;28;46428;-53
2024/03/05 01:04:17;;;;;;;;;1.00;1.00;;;;;13.82;100.00;100528.50;2103042;28;46375;-53
2024/03/05 01:05:18;;;;;;;;;1.00;1.00;;;;;13.81;100.00;100521.41;2101077;28;46521;-54
2024/03/05 01:06:19;;;;;;;;;1.00;1.00;;;;;13.77;100.00;100519.81;2100009;28;46402;-51
2024/03/05 01:07:19;;;;;;;;;0.00;0.00;;;;;13.75;100.00;100523.47;2099610;28;46319;-54
2024/03/05 01:08:20;;;;;;;;;2.00;2.00;;;;;13.70;100.00;100522.75;2103818;28;46842;-51
2024/03/05 01:09:24;;;;;;;;;1.00;1.00;;;;;13.41;100.00;100519.38;2098947;28;46428;-56
2024/03/05 01:10:25;;;;;;;;;1.00;1.00;;;;;13.35;100.00;100521.41;2102297;28;46600;-55
2024/03/05 01:11:25;;;;;;;;;1.00;1.00;;;;;13.34;100.00;100524.97;2099921;28;46314;-53
2024/03/05 01:12:25;;;;;;;;;1.00;1.00;;;;;13.32;100.00;100524.16;2102813;28;46218;-55
2024/03/05 01:13:26;;;;;;;;;1.00;1.00;;;;;13.32;100.00;100529.50;2089949;28;46319;-55
2024/03/05 01:14:27;;;;;;;;;1.75;1.75;;;;;13.45;100.00;100518.31;2094068;28;46758;-53
2024/03/05 01:15:27;;;;;;;;;1.67;1.00;;;;;13.30;100.00;100526.88;2099927;28;46561;-55
2024/03/05 01:16:27;;;;;;;;;1.00;0.33;;;;;13.26;100.00;100514.59;2103612;28;46847;-54
2024/03/05 01:17:28;;;;;;;;;1.67;1.67;;;;;13.24;100.00;100528.00;2099918;28;46605;-54
2024/03/05 01:18:28;;;;;;;;;1.00;1.00;;;;;13.24;100.00;100514.66;2102543;28;45718;-56
2024/03/05 01:19:29;;;;;;;;;2.00;2.00;;;;;13.24;100.00;100522.66;2099788;28;46635;-55
2024/03/05 01:20:29;;;;;;;;;2.67;1.00;;;;;13.22;100.00;100510.31;2102255;28;46805;-54
2024/03/05 01:21:30;;;;;;;;;1.33;1.33;;;;;13.21;100.00;100522.78;2100167;28;46261;-54
2024/03/05 01:22:32;;;;;;;;;3.25;2.50;;;;;13.23;100.00;100515.59;2100814;28;46918;-53
2024/03/05 01:23:33;;;;;;;;;1.75;1.75;;;;;13.21;100.00;100506.78;2099836;28;46331;-54
2024/03/05 01:24:33;;;;;;;;;0.00;0.00;;;;;13.18;100.00;100511.28;2103551;28;46703;-55
2024/03/05 01:25:33;;;;;;;;;2.00;1.00;;;;;13.12;100.00;100515.06;2098788;28;46780;-54
2024/03/05 01:26:34;;;;;;;;;2.00;1.00;;;;;13.41;100.00;100516.72;2085209;28;46236;-55
2024/03/05 01:27:34;;;;;;;;;1.00;1.00;;;;;13.21;100.00;100509.44;2082747;28;46283;-54
2024/03/05 01:28:34;;;;;;;;;1.67;0.67;;;;;13.21;100.00;100519.22;2102986;28;46829;-54
2024/03/05 01:29:35;;;;;;;;;1.00;1.00;;;;;13.14;100.00;100515.00;2100509;28;46504;-53
2024/03/05 01:30:36;;;;;;;;;3.00;1.00;;;;;13.39;100.00;100518.56;2103530;28;46307;-53
2024/03/05 01:31:37;;;;;;;;;1.25;1.00;;;;;13.28;100.00;100510.09;2099507;28;46528;-54
2024/03/05 01:32:41;;;;;;;;;2.67;1.67;;;;;13.44;100.00;100524.59;2100815;27;46471;-52
2024/03/05 01:33:43;;;;;;;;;3.00;2.00;;;;;13.46;100.00;100519.19;2096720;28;46903;-52
2024/03/05 01:34:46;;;;;;;;;1.00;1.00;;;;;13.43;100.00;100521.97;2098976;28;46231;-53
2024/03/05 01:35:51;;;;;;;;;3.00;1.75;;;;;13.41;100.00;100516.72;2097934;28;46699;-54
2024/03/05 01:36:56;;;;;;;;;1.00;1.00;;;;;13.49;100.00;100522.63;2097296;28;47092;-55
2024/03/05 01:37:58;;;;;;;;;1.00;1.00;;;;;13.51;100.00;100519.91;2096701;28;46308;-52
2024/03/05 01:38:58;;;;;;;;;1.00;1.00;;;;;13.65;100.00;100514.94;2096955;28;46773;-53
2024/03/05 01:39:58;;;;;;;;;2.33;1.33;;;;;13.69;100.00;100513.88;2098380;28;46413;-55
2024/03/05 01:40:58;;;;;;;;;2.00;2.00;;;;;13.70;100.00;100512.09;2097725;28;46378;-52
2024/03/05 01:41:59;;;;;;;;;3.00;2.00;;;;;13.58;100.00;100513.41;2099409;28;46736;-51
2024/03/05 01:42:59;;;;;;;;;2.00;2.00;;;;;13.28;100.00;100512.75;2098202;28;46713;-53
2024/03/05 01:43:59;;;;;;;;;1.00;1.00;;;;;13.24;100.00;100519.13;2099740;28;46715;-55
2024/03/05 01:45:00;;;;;;;;;1.00;1.00;;;;;13.22;100.00;100507.66;2096455;28;45522;-53
2024/03/05 01:46:00;;;;;;;;;1.67;1.67;;;;;13.23;100.00;100520.03;2090543;28;46496;-54
2024/03/05 01:47:01;;;;;;;;;2.00;2.00;;;;;13.22;100.00;100512.97;2088249;28;46899;-54
2024/03/05 01:48:04;;;;;;;;;2.00;2.00;;;;;13.27;100.00;100510.13;2098920;28;46457;-54
2024/03/05 01:49:04;;;;;;;;;2.75;2.00;;;;;13.21;100.00;100500.56;2090017;28;46404;-51
2024/03/05 01:50:09;;;;;;;;;2.25;2.25;;;;;13.19;100.00;100510.41;2092512;28;46978;-52
2024/03/05 01:51:16;;;;;;;;;2.00;2.00;;;;;13.21;100.00;100513.88;2097537;28;47290;-52
2024/03/05 01:52:16;;;;;;;;;1.50;1.50;;;;;13.18;100.00;100503.31;2099105;28;47352;-54
2024/03/05 01:53:18;;;;;;;;;2.00;2.00;;;;;13.20;100.00;100505.00;2097053;28;46579;-53
2024/03/05 01:54:18;;;;;;;;;2.00;2.00;;;;;13.20;100.00;100504.16;2099574;28;46152;-54
2024/03/05 01:55:19;;;;;;;;;2.00;2.00;;;;;13.21;100.00;100500.56;2096172;28;46803;-52
2024/03/05 01:56:19;;;;;;;;;2.33;2.33;;;;;13.20;100.00;100497.03;2099252;28;46280;-51
2024/03/05 01:57:22;;;;;;;;;6.00;6.00;;;;;13.21;100.00;100503.22;2096702;28;46317;-54
2024/03/05 01:58:23;;;;;;;;;3.00;3.00;;;;;13.20;100.00;100504.16;2089929;28;46660;-51
2024/03/05 01:59:25;;;;;;;;;11.00;11.00;;;;;13.19;100.00;100515.72;2088085;28;46684;-52
2024/03/05 02:00:26;;;;;;;;;15.40;14.00;;;;;13.23;100.00;100504.94;2099819;28;46925;-53
2024/03/05 02:01:26;;;;;;;;;29.60;26.60;;;;;13.22;100.00;100507.66;2096675;28;46996;-50
2024/03/05 02:02:26;;;;;;;;;52.00;40.50;;;;;13.24;100.00;100508.47;2099068;28;46596;-52
2024/03/05 02:03:27;;;;;;;;;19.00;17.75;;;;;13.25;100.00;100505.75;2096617;28;46601;-53
2024/03/05 02:04:28;;;;;;;;;11.33;7.33;;;;;13.27;100.00;100513.69;2098978;28;46428;-55
2024/03/05 02:05:29;;;;;;;;;7.00;7.00;;;;;13.26;100.00;100517.25;2096746;28;46445;-55
2024/03/05 02:06:32;;;;;;;;;4.00;4.00;;;;;13.27;100.00;100511.00;2099097;28;46465;-54
2024/03/05 02:07:35;;;;;;;;;6.25;5.00;;;;;13.27;100.00;100510.13;2096392;28;46419;-55
2024/03/05 02:08:35;;;;;;;;;2.25;2.25;;;;;13.29;100.00;100516.28;2098942;28;46759;-53
2024/03/05 02:09:36;;;;;;;;;2.33;2.00;;;;;13.27;100.00;100515.47;2097107;28;46591;-54
2024/03/05 02:10:37;;;;;;;;;1.50;1.50;;;;;13.29;100.00;100509.16;2099662;28;46610;-55
2024/03/05 02:11:40;;;;;;;;;2.00;2.00;;;;;13.24;100.00;100512.00;2095653;28;46962;-54
2024/03/05 02:12:40;;;;;;;;;3.50;3.50;;;;;13.22;100.00;100515.66;2098681;28;47330;-53
2024/03/05 02:13:42;;;;;;;;;2.33;2.33;;;;;13.18;100.00;100516.63;2097352;28;46854;-53
2024/03/05 02:14:43;;;;;;;;;2.50;2.50;;;;;13.16;100.00;100513.16;2099647;28;46611;-54
2024/03/05 02:15:43;;;;;;;;;2.67;2.67;;;;;13.17;100.00;100520.22;2098017;28;46387;-53
2024/03/05 02:16:45;;;;;;;;;2.00;2.00;;;;;13.17;100.00;100517.56;2098934;28;46381;-54
2024/03/05 02:17:46;;;;;;;;;2.25;2.25;;;;;13.17;100.00;100513.09;2097472;28;46879;-53
2024/03/05 02:18:46;;;;;;;;;2.00;2.00;;;;;13.18;100.00;100527.28;2098095;28;46462;-52
2024/03/05 02:19:47;;;;;;;;;3.00;2.00;;;;;13.17;100.00;100510.44;2098137;28;46639;-49
2024/03/05 02:20:48;;;;;;;;;2.00;2.00;;;;;13.15;100.00;100520.28;2098233;28;46556;-53
2024/03/05 02:22:02;;;;;;;;;2.00;2.00;;;;;13.15;100.00;100520.28;2099603;28;46660;-53
2024/03/05 02:23:02;;;;;;;;;2.00;2.00;;;;;13.15;100.00;100522.06;2098347;28;46601;-52
2024/03/05 02:24:04;;;;;;;;;2.00;2.00;;;;;13.16;100.00;100518.47;2100897;28;45729;-51
2024/03/05 02:25:05;;;;;;;;;2.75;2.25;;;;;13.18;100.00;100519.28;2098355;28;46778;-51
2024/03/05 02:26:06;;;;;;;;;3.00;3.00;;;;;13.16;100.00;100515.81;2100143;28;47210;-52
2024/03/05 02:27:07;;;;;;;;;2.25;2.25;;;;;13.13;100.00;100515.94;2099122;28;46961;-51
2024/03/05 02:28:09;;;;;;;;;2.00;2.00;;;;;13.12;100.00;100512.41;2099690;28;46400;-51
2024/03/05 02:29:10;;;;;;;;;2.25;2.25;;;;;13.14;100.00;100515.00;2098616;28;46983;-51
2024/03/05 02:30:12;;;;;;;;;2.00;2.00;;;;;13.17;100.00;100512.22;2100498;28;47286;-50
2024/03/05 02:31:13;;;;;;;;;2.75;2.75;;;;;13.16;100.00;100511.34;2098278;28;46035;-53
2024/03/05 02:32:14;;;;;;;;;3.00;2.00;;;;;13.18;100.00;100505.97;2099976;27;46678;-53
2024/03/05 02:33:16;;;;;;;;;2.00;2.00;;;;;13.12;100.00;100509.72;2098091;28;46838;-54
2024/03/05 02:34:16;;;;;;;;;2.00;2.00;;;;;13.09;100.00;100509.84;2099383;28;46663;-52
2024/03/05 02:35:17;;;;;;;;;3.00;2.00;;;;;13.05;100.00;100502.88;2098485;28;46735;-52
2024/03/05 02:36:17;;;;;;;;;3.67;3.67;;;;;13.04;100.00;100497.59;2100416;28;46819;-50
2024/03/05 02:37:17;;;;;;;;;1.33;1.33;;;;;13.02;100.00;100495.00;2098667;28;46135;-50
2024/03/05 02:38:17;;;;;;;;;2.33;2.33;;;;;13.04;100.00;100494.94;2100439;28;46201;-52
2024/03/05 02:39:19;;;;;;;;;5.00;2.00;;;;;13.04;100.00;100495.81;2098568;28;46518;-54
2024/03/05 02:40:19;;;;;;;;;3.00;1.75;;;;;13.05;100.00;100496.66;2100015;28;46744;-52
2024/03/05 02:41:20;;;;;;;;;2.00;2.00;;;;;13.05;100.00;100500.22;2098060;28;46396;-52
2024/03/05 02:42:21;;;;;;;;;1.00;1.00;;;;;13.07;100.00;100503.69;2101224;28;47084;-53
2024/03/05 02:43:21;;;;;;;;;1.67;1.67;;;;;13.08;100.00;100500.09;2096688;28;46726;-51
2024/03/05 02:44:22;;;;;;;;;3.00;3.00;;;;;13.11;100.00;100500.00;2100869;28;46286;-51
2024/03/05 02:45:22;;;;;;;;;2.00;2.00;;;;;13.12;100.00;100503.53;2097951;28;46196;-49
2024/03/05 02:46:24;;;;;;;;;1.00;1.00;;;;;13.13;100.00;100511.47;2100057;28;46655;-51
2024/03/05 02:47:24;;;;;;;;;2.00;2.00;;;;;13.10;100.00;100508.06;2098379;28;46510;-52
2024/03/05 02:48:25;;;;;;;;;3.33;3.33;;;;;13.10;100.00;100508.94;2100019;28;46192;-53
2024/03/05 02:49:25;;;;;;;;;3.00;2.00;;;;;13.10;100.00;100511.59;2097951;28;46414;-51
2024/03/05 02:50:26;;;;;;;;;4.67;4.00;;;;;13.10;100.00;100513.38;2100481;28;46429;-52
2024/03/05 02:51:28;;;;;;;;;3.00;3.00;;;;;13.13;100.00;100502.59;2097007;28;45750;-50
2024/03/05 02:52:30;;;;;;;;;3.50;2.25;;;;;13.15;100.00;100508.75;2099944;28;46837;-49
2024/03/05 02:53:31;;;;;;;;;2.25;2.25;;;;;13.13;100.00;100506.16;2097822;28;46340;-52
2024/03/05 02:54:31;;;;;;;;;3.00;3.00;;;;;13.13;100.00;100518.59;2100589;28;46630;-51
2024/03/05 02:55:37;;;;;;;;;2.33;2.33;;;;;13.12;100.00;100511.53;2097628;28;46452;-54
2024/03/05 02:56:38;;;;;;;;;4.00;4.00;;;;;13.11;100.00;100496.47;2100721;28;46773;-52
2024/03/05 02:57:42;;;;;;;;;4.00;2.67;;;;;13.12;100.00;100503.53;2098561;28;46703;-53
2024/03/05 02:58:42;;;;;;;;;2.00;2.00;;;;;13.12;100.00;100501.75;2100917;28;46708;-53
2024/03/05 02:59:42;;;;;;;;;4.33;3.00;;;;;13.12;100.00;100499.06;2097034;28;46971;-52
2024/03/05 03:00:43;;;;;;;;;3.67;3.67;;;;;13.11;100.00;100494.69;2100208;28;46793;-54
2024/03/05 03:01:46;;;;;;;;;4.33;3.00;;;;;13.14;100.00;100499.03;2097168;28;46182;-53
2024/03/05 03:02:50;;;;;;;;;8.50;5.50;;;;;13.14;100.00;100499.88;2099929;28;46956;-53
2024/03/05 03:03:51;;;;;;;;;5.00;5.00;;;;;13.17;100.00;100501.56;2099548;28;46776;-52
2024/03/05 03:04:51;;;;;;;;;4.00;4.00;;;;;13.31;100.00;100496.63;2099534;28;46765;-53
2024/03/05 03:05:52;;;;;;;;;3.67;3.67;;;;;13.40;100.00;100500.78;2098522;28;46873;-53
2024/03/05 03:06:52;;;;;;;;;3.00;2.00;;;;;13.37;100.00;100506.22;2098771;28;46788;-52
2024/03/05 03:07:52;;;;;;;;;1.33;1.33;;;;;13.57;100.00;100498.34;2099129;28;46671;-54
2024/03/05 03:08:53;;;;;;;;;2.00;2.00;;;;;13.64;100.00;100501.66;2099274;28;46411;-53
2024/03/05 03:09:53;;;;;;;;;3.00;2.00;;;;;13.64;100.00;100499.88;2099394;28;46961;-53
2024/03/05 03:10:55;;;;;;;;;2.67;2.67;;;;;13.64;100.00;100507.88;2097768;28;46937;-51
2024/03/05 03:11:56;;;;;;;;;3.50;3.00;;;;;13.69;100.00;100499.69;2099734;28;46882;-54
2024/03/05 03:12:57;;;;;;;;;3.00;3.00;;;;;13.70;100.00;100502.28;2080298;28;46703;-51
2024/03/05 03:13:57;;;;;;;;;3.33;2.67;;;;;13.70;100.00;100509.41;2076001;28;46315;-53
2024/03/05 03:14:57;;;;;;;;;2.00;2.00;;;;;13.68;100.00;100503.28;2088453;28;46290;-52
2024/03/05 03:15:58;;;;;;;;;3.00;3.00;;;;;13.68;100.00;100508.59;2099692;28;46587;-54
2024/03/05 03:16:58;;;;;;;;;3.33;3.00;;;;;13.68;100.00;100508.59;2098447;28;46619;-53
2024/03/05 03:17:58;;;;;;;;;4.67;2.00;;;;;13.68;100.00;100504.16;2099670;28;46719;-54
2024/03/05 03:18:58;;;;;;;;;2.00;2.00;;;;;13.68;100.00;100506.81;2097879;28;46130;-53
2024/03/05 03:19:59;;;;;;;;;4.00;4.00;;;;;13.71;100.00;100508.47;2099649;28;46688;-53
2024/03/05 03:20:59;;;;;;;;;5.33;4.00;;;;;13.71;100.00;100508.47;2098344;28;46261;-54
2024/03/05 03:21:59;;;;;;;;;3.00;3.00;;;;;13.72;100.00;100510.22;2100702;28;46117;-53
2024/03/05 03:23:00;;;;;;;;;2.00;2.00;;;;;13.73;100.00;100509.31;2098214;28;46436;-54
2024/03/05 03:24:00;;;;;;;;;2.33;2.33;;;;;13.76;100.00;100515.41;2100511;28;46331;-55
2024/03/05 03:25:01;;;;;;;;;2.00;2.00;;;;;13.78;100.00;100512.66;2098229;28;46586;-52
2024/03/05 03:26:01;;;;;;;;;1.67;1.67;;;;;13.78;100.00;100515.34;2100980;28;46570;-54
2024/03/05 03:27:01;;;;;;;;;2.00;2.00;;;;;13.78;100.00;100510.00;2097803;28;46702;-52
2024/03/05 03:28:02;;;;;;;;;2.00;2.00;;;;;13.58;100.00;100518.75;2099518;28;46508;-55
2024/03/05 03:29:02;;;;;;;;;3.00;3.00;;;;;13.72;100.00;100505.78;2098681;28;46322;-55
2024/03/05 03:30:07;;;;;;;;;3.67;3.00;;;;;13.52;100.00;100516.31;2098098;28;46467;-51
2024/03/05 03:31:11;;;;;;;;;5.00;2.75;;;;;13.44;100.00;100511.25;2097100;28;47790;-52
2024/03/05 03:32:11;;;;;;;;;3.25;3.00;;;;;13.39;100.00;100509.69;2099794;27;46506;-52
2024/03/05 03:33:12;;;;;;;;;3.00;3.00;;;;;13.35;100.00;100510.75;2097197;28;46190;-54
2024/03/05 03:34:16;;;;;;;;;4.00;3.00;;;;;13.40;100.00;100516.75;2099554;28;46786;-53
2024/03/05 03:35:17;;;;;;;;;2.00;2.00;;;;;13.41;100.00;100513.16;2096957;28;46747;-53
2024/03/05 03:36:23;;;;;;;;;3.00;2.25;;;;;13.44;100.00;100513.06;2100191;28;46656;-54
2024/03/05 03:37:23;;;;;;;;;3.00;3.00;;;;;13.43;100.00;100513.97;2096563;28;46619;-54
2024/03/05 03:38:24;;;;;;;;;2.00;2.00;;;;;13.38;100.00;100524.81;2099017;28;46448;-55
2024/03/05 03:39:24;;;;;;;;;3.00;3.00;;;;;13.39;100.00;100515.91;2097886;28;46156;-55
2024/03/05 03:40:24;;;;;;;;;3.00;3.00;;;;;13.42;100.00;100517.56;2099641;28;46346;-55
2024/03/05 03:41:25;;;;;;;;;3.00;3.00;;;;;13.40;100.00;100517.63;2097578;28;46980;-54
2024/03/05 03:42:27;;;;;;;;;2.33;2.00;;;;;13.39;100.00;100513.22;2100502;28;46474;-55
2024/03/05 03:43:27;;;;;;;;;1.25;1.25;;;;;13.39;100.00;100509.69;2097598;28;46388;-53
2024/03/05 03:44:28;;;;;;;;;4.00;3.00;;;;;13.41;100.00;100519.38;2099907;28;47094;-54
2024/03/05 03:45:28;;;;;;;;;3.00;3.00;;;;;13.34;100.00;100514.31;2097274;28;46662;-53
2024/03/05 03:46:28;;;;;;;;;3.00;3.00;;;;;13.26;100.00;100517.25;2098417;28;46850;-56
2024/03/05 03:47:29;;;;;;;;;1.00;1.00;;;;;13.20;100.00;100507.69;2097572;28;46045;-52
2024/03/05 03:48:29;;;;;;;;;2.67;2.67;;;;;13.18;100.00;100517.53;2099564;28;46257;-55
2024/03/05 03:49:30;;;;;;;;;2.33;2.00;;;;;13.16;100.00;100518.47;2097868;28;45993;-52
2024/03/05 03:50:31;;;;;;;;;2.00;2.00;;;;;13.13;100.00;100513.25;2100027;28;46185;-53
2024/03/05 03:51:34;;;;;;;;;2.33;2.00;;;;;13.13;100.00;100515.94;2098883;28;47299;-52
2024/03/05 03:52:35;;;;;;;;;1.00;1.00;;;;;13.14;100.00;100517.66;2100699;28;46556;-54
2024/03/05 03:53:36;;;;;;;;;2.67;2.67;;;;;13.13;100.00;100514.13;2097633;28;46240;-55
2024/03/05 03:54:37;;;;;;;;;3.00;2.50;;;;;13.14;100.00;100513.22;2100371;28;46356;-53
2024/03/05 03:55:37;;;;;;;;;3.00;3.00;;;;;13.36;100.00;100520.47;2098438;28;46707;-55
2024/03/05 03:56:38;;;;;;;;;3.00;3.00;;;;;13.43;100.00;100519.31;2099907;28;46170;-55
2024/03/05 03:57:39;;;;;;;;;1.33;1.33;;;;;13.32;100.00;100518.81;2096064;28;46242;-55
2024/03/05 03:58:41;;;;;;;;;4.00;3.00;;;;;13.43;100.00;100519.31;2100867;28;45493;-54
2024/03/05 03:59:44;;;;;;;;;2.00;2.00;;;;;13.42;100.00;100518.44;2096835;28;46312;-54
2024/03/05 04:00:44;;;;;;;;;1.00;1.00;;;;;13.38;100.00;100514.16;2100563;28;46371;-53
2024/03/05 04:01:49;;;;;;;;;2.00;2.00;;;;;13.38;100.00;100513.28;2096362;28;46755;-52
2024/03/05 04:02:50;;;;;;;;;2.50;1.75;;;;;13.32;100.00;100518.81;2098103;28;46450;-52
2024/03/05 04:03:50;;;;;;;;;1.67;1.67;;;;;13.30;100.00;100518.88;2098512;28;46553;-52
2024/03/05 04:04:51;;;;;;;;;3.00;3.00;;;;;13.27;100.00;100511.00;2097906;28;46327;-54
2024/03/05 04:05:51;;;;;;;;;3.00;3.00;;;;;13.32;100.00;100517.03;2097480;28;46243;-55
2024/03/05 04:06:52;;;;;;;;;3.00;3.00;;;;;13.32;100.00;100521.50;2099301;28;46158;-54
2024/03/05 04:07:52;;;;;;;;;4.00;2.67;;;;;13.32;100.00;100521.50;2097895;28;47929;-54
2024/03/05 04:08:52;;;;;;;;;6.33;3.33;;;;;13.31;100.00;100517.97;2098103;28;46633;-52
2024/03/05 04:09:53;;;;;;;;;2.00;2.00;;;;;13.30;100.00;100518.00;2099101;28;46610;-52
2024/03/05 04:10:53;;;;;;;;;2.00;2.00;;;;;13.37;100.00;100519.56;2097612;28;46560;-53
2024/03/05 04:11:54;;;;;;;;;5.67;3.00;;;;;13.28;100.00;100509.22;2100097;28;46418;-52
2024/03/05 04:12:56;;;;;;;;;2.00;2.00;;;;;13.32;100.00;100519.69;2098326;28;46762;-52
2024/03/05 04:13:56;;;;;;;;;3.00;3.00;;;;;13.58;100.00;100518.75;2099380;28;47061;-55
2024/03/05 04:14:57;;;;;;;;;3.33;3.33;;;;;13.53;100.00;100526.06;2098614;28;46651;-53
2024/03/05 04:15:59;;;;;;;;;2.00;2.00;;;;;13.46;100.00;100517.41;2099355;28;46631;-54
2024/03/05 04:16:59;;;;;;;;;2.75;2.75;;;;;13.49;100.00;100527.09;2096537;28;47031;-54
2024/03/05 04:17:59;;;;;;;;;3.00;2.00;;;;;13.51;100.00;100518.13;2099671;28;46556;-55
2024/03/05 04:19:00;;;;;;;;;4.33;4.33;;;;;13.51;100.00;100522.56;2080255;28;46026;-55
2024/03/05 04:20:01;;;;;;;;;4.00;4.00;;;;;13.50;100.00;100523.50;2082139;28;46498;-56
2024/03/05 04:21:01;;;;;;;;;4.00;2.67;;;;;13.48;100.00;100517.38;2097902;28;46290;-53
2024/03/05 04:22:02;;;;;;;;;4.00;2.33;;;;;13.48;100.00;100525.38;2098250;28;46219;-54
2024/03/05 04:23:03;;;;;;;;;3.00;3.00;;;;;13.49;100.00;100522.63;2096776;28;46364;-53
2024/03/05 04:24:03;;;;;;;;;3.00;3.00;;;;;13.49;100.00;100522.63;2099546;28;46626;-53
2024/03/05 04:25:05;;;;;;;;;4.00;3.00;;;;;13.49;100.00;100527.97;2097838;28;46546;-52
2024/03/05 04:26:13;;;;;;;;;3.75;3.75;;;;;13.50;100.00;100527.03;2099274;28;46382;-54
2024/03/05 04:27:15;;;;;;;;;3.75;3.00;;;;;13.51;100.00;100525.25;2097402;28;47168;-54
2024/03/05 04:28:16;;;;;;;;;2.00;1.25;;;;;13.51;100.00;100526.13;2100086;28;46343;-53
2024/03/05 04:29:16;;;;;;;;;4.00;2.00;;;;;13.52;100.00;100529.66;2097990;28;46883;-55
2024/03/05 04:30:19;;;;;;;;;3.00;3.00;;;;;13.52;100.00;100525.19;2099177;28;46472;-55
2024/03/05 04:31:20;;;;;;;;;2.50;2.50;;;;;13.53;100.00;100523.38;2097427;28;46488;-53
2024/03/05 04:32:20;;;;;;;;;2.25;2.25;;;;;13.64;100.00;100526.53;2099311;27;46833;-56
2024/03/05 04:33:21;;;;;;;;;2.33;2.00;;;;;13.59;100.00;100525.81;2096489;28;46234;-53
2024/03/05 04:34:21;;;;;;;;;3.00;3.00;;;;;13.58;100.00;100528.53;2099381;28;46832;-55
2024/03/05 04:35:22;;;;;;;;;5.00;4.67;;;;;13.58;100.00;100524.06;2097331;28;46899;-55
2024/03/05 04:36:23;;;;;;;;;4.67;3.33;;;;;13.55;100.00;100527.72;2098890;28;46466;-54
2024/03/05 04:37:23;;;;;;;;;5.75;3.25;;;;;13.47;100.00;100526.28;2080101;28;46233;-52
2024/03/05 04:38:26;;;;;;;;;4.00;4.00;;;;;13.48;100.00;100528.03;2081772;28;46888;-52
2024/03/05 04:39:27;;;;;;;;;5.00;3.25;;;;;13.62;100.00;100527.53;2097942;28;47163;-54
2024/03/05 04:40:29;;;;;;;;;2.25;2.00;;;;;13.37;100.00;100524.88;2099592;28;45534;-54